Wetaug, Illinois
Current Conditions -  °F | °C
As of 6:15 AM on Wednesday 28 Jan 2015 (Local Time) from KCIR Reporting Station
Clear Clear  
Wind Chill: 27°   Ceiling: Unl
Heat Index: 31°   Visibility: 7mi
Dew Point: 30°   Wind: 5mph
Humidity: 94%   Direction: 90°E
Pressure: 30.3"   Gusts: NA
Location:  37.3713°N, 89.1162°W
Report Text: KCIR 281215Z AUTO 09004KT 7SM CLR 00/M01 A3030 RMK AO2 T10041013
Loading
Personal Weather Stations






























Interactive Weather Map New forecast layout! Learn more

10-Day Weather Forecast

Advertisements
Track Severe Weather on mobile